createdAt,value
2018-11-29T00:07:27.152Z,61.56
2018-11-29T00:09:56.003Z,61.05
2018-11-29T00:12:24.848Z,61.34
2018-11-29T00:14:53.799Z,61.50
2018-11-29T00:17:22.613Z,61.42
2018-11-29T00:19:51.511Z,60.73
2018-11-29T00:22:20.343Z,60.49
2018-11-29T00:24:49.403Z,59.85
2018-11-29T00:27:18.291Z,61.11
2018-11-29T00:29:47.157Z,61.31
2018-11-29T00:32:16.061Z,61.02
2018-11-29T00:34:44.874Z,62.02
2018-11-29T00:37:13.721Z,60.82
2018-11-29T00:39:42.547Z,61.52
2018-11-29T00:42:11.420Z,60.93
2018-11-29T00:44:40.269Z,60.88
2018-11-29T00:47:09.102Z,61.91
2018-11-29T00:49:37.917Z,61.80
2018-11-29T00:52:06.803Z,62.77
2018-11-29T00:54:35.644Z,62.96
2018-11-29T00:57:04.490Z,62.95
2018-11-29T00:59:33.375Z,62.72
2018-11-29T01:02:02.259Z,62.64
2018-11-29T01:04:31.126Z,62.83
2018-11-29T01:07:00.095Z,62.04
2018-11-29T01:09:29.215Z,63.21
2018-11-29T01:11:58.147Z,63.13
2018-11-29T01:14:27.019Z,62.42
2018-11-29T01:16:55.916Z,63.00
2018-11-29T01:19:25.490Z,62.14
2018-11-29T01:21:54.286Z,62.30
2018-11-29T01:24:23.135Z,62.64
2018-11-29T01:26:51.987Z,63.91
2018-11-29T01:29:20.924Z,63.74
2018-11-29T01:31:49.823Z,63.14
2018-11-29T01:34:18.760Z,62.49
2018-11-29T01:36:47.728Z,61.90
2018-11-29T01:39:16.604Z,62.26
2018-11-29T01:41:45.567Z,62.34
2018-11-29T01:44:14.397Z,62.92
2018-11-29T01:46:43.227Z,63.65
2018-11-29T01:49:12.080Z,63.38
2018-11-29T01:51:40.923Z,64.00
2018-11-29T01:54:09.760Z,64.14
2018-11-29T01:56:38.616Z,64.94
2018-11-29T01:59:07.475Z,65.99
2018-11-29T02:01:36.427Z,65.61
2018-11-29T02:04:05.604Z,65.01
2018-11-29T02:06:34.481Z,64.83
2018-11-29T02:09:03.431Z,65.61
2018-11-29T02:11:32.285Z,64.96
2018-11-29T02:14:01.119Z,65.22
2018-11-29T02:16:29.953Z,65.08
2018-11-29T02:18:58.863Z,64.79
2018-11-29T02:21:27.986Z,64.03
2018-11-29T02:23:57.215Z,65.80
2018-11-29T02:26:26.163Z,64.47
2018-11-29T02:28:55.133Z,65.39
2018-11-29T02:31:24.733Z,65.11
2018-11-29T02:33:53.709Z,65.61
2018-11-29T02:36:22.563Z,65.57
2018-11-29T02:38:51.397Z,65.30
2018-11-29T02:41:20.330Z,64.93
2018-11-29T02:43:49.190Z,65.09
2018-11-29T02:46:18.026Z,65.32
2018-11-29T02:48:46.953Z,65.22
2018-11-29T02:51:15.887Z,64.88
2018-11-29T02:53:44.740Z,65.30
2018-11-29T02:56:13.588Z,64.48
2018-11-29T02:58:42.415Z,64.39
2018-11-29T03:01:11.234Z,64.32
2018-11-29T03:03:40.071Z,63.34
2018-11-29T03:06:09.222Z,62.48
2018-11-29T03:08:38.111Z,62.28
2018-11-29T03:11:07.042Z,63.20
2018-11-29T03:13:35.979Z,61.82
2018-11-29T03:16:04.865Z,62.41
2018-11-29T03:18:33.819Z,62.90
2018-11-29T03:21:02.667Z,63.12
2018-11-29T03:23:31.510Z,62.64
2018-11-29T03:26:00.359Z,63.10
2018-11-29T03:28:29.592Z,62.80
2018-11-29T03:30:58.429Z,63.13
2018-11-29T03:33:27.304Z,62.98
2018-11-29T03:35:56.201Z,62.45
2018-11-29T03:38:25.052Z,61.86
2018-11-29T03:40:54.004Z,62.38
2018-11-29T03:43:22.849Z,62.21
2018-11-29T03:45:51.742Z,62.71
2018-11-29T03:48:20.608Z,62.37
2018-11-29T03:50:49.440Z,63.15
2018-11-29T03:53:18.276Z,62.53
2018-11-29T03:55:47.135Z,64.21
2018-11-29T03:58:16.422Z,64.33
2018-11-29T04:00:45.358Z,63.80
2018-11-29T04:03:14.854Z,64.22
2018-11-29T04:05:43.678Z,64.46
2018-11-29T04:08:12.711Z,64.29
2018-11-29T04:10:41.751Z,64.17
2018-11-29T04:13:10.795Z,64.88
2018-11-29T04:15:39.761Z,64.26
2018-11-29T04:18:08.619Z,64.99
2018-11-29T04:20:37.483Z,63.50
2018-11-29T04:23:06.569Z,64.21
2018-11-29T04:25:35.478Z,63.49
2018-11-29T04:28:04.347Z,64.88
2018-11-29T04:30:33.296Z,65.11
2018-11-29T04:33:02.142Z,65.36
2018-11-29T04:35:31.022Z,65.50
2018-11-29T04:37:59.916Z,65.17
2018-11-29T04:40:28.744Z,65.90
2018-11-29T04:42:57.668Z,65.28
2018-11-29T04:45:30.890Z,65.62
2018-11-29T04:47:59.740Z,66.13
2018-11-29T04:50:28.623Z,66.43
2018-11-29T04:52:57.466Z,65.83
2018-11-29T04:55:26.327Z,65.78
2018-11-29T04:57:55.239Z,67.05
2018-11-29T05:00:24.124Z,66.71
2018-11-29T05:02:52.996Z,66.97
2018-11-29T05:05:21.835Z,66.02
2018-11-29T05:07:50.675Z,66.81
2018-11-29T05:10:19.588Z,65.97
2018-11-29T05:12:48.487Z,66.19
2018-11-29T05:15:17.466Z,66.23
2018-11-29T05:17:46.395Z,66.31
2018-11-29T05:20:15.244Z,65.90
2018-11-29T05:22:44.098Z,65.66
2018-11-29T05:25:12.995Z,64.58
2018-11-29T05:27:41.839Z,64.42
2018-11-29T05:30:12.376Z,65.32
2018-11-29T05:32:41.298Z,64.64
2018-11-29T05:35:11.318Z,64.42
2018-11-29T05:37:40.253Z,65.21
2018-11-29T05:40:16.672Z,64.73
2018-11-29T05:42:45.666Z,64.60
2018-11-29T05:45:14.555Z,64.26
2018-11-29T05:47:43.448Z,63.96
2018-11-29T05:50:12.796Z,63.73
2018-11-29T05:52:41.992Z,65.19
2018-11-29T05:55:12.721Z,64.34
2018-11-29T05:57:41.558Z,65.75
2018-11-29T06:00:13.114Z,65.57
2018-11-29T06:02:42.029Z,65.74
2018-11-29T06:05:12.104Z,65.45
2018-11-29T06:07:40.997Z,65.43
2018-11-29T06:10:09.874Z,65.02
2018-11-29T06:12:38.856Z,64.35
2018-11-29T06:15:09.701Z,65.12
2018-11-29T06:17:38.629Z,64.90
2018-11-29T06:20:10.178Z,64.82
2018-11-29T06:22:39.061Z,64.18
2018-11-29T06:25:07.975Z,64.10
2018-11-29T06:27:36.856Z,64.74
2018-11-29T06:30:11.583Z,63.61
2018-11-29T06:32:40.410Z,64.36
2018-11-29T06:35:09.332Z,63.77
2018-11-29T06:37:38.250Z,64.06
2018-11-29T06:40:11.015Z,64.70
2018-11-29T06:42:39.900Z,64.13
2018-11-29T06:45:13.830Z,64.29
2018-11-29T06:47:42.728Z,63.28
2018-11-29T06:50:13.471Z,63.16
2018-11-29T06:52:43.501Z,62.96
2018-11-29T06:59:52.063Z,63.10
2018-11-29T07:02:20.933Z,62.80
2018-11-29T07:04:50.242Z,62.23
2018-11-29T07:07:19.155Z,62.58
2018-11-29T07:09:47.995Z,63.05
2018-11-29T07:12:17.087Z,62.46
2018-11-29T07:14:46.378Z,62.51
2018-11-29T07:17:15.651Z,64.24
2018-11-29T07:19:44.767Z,64.36
2018-11-29T07:22:13.710Z,63.64
2018-11-29T07:24:42.614Z,64.26
2018-11-29T07:27:11.480Z,63.29
2018-11-29T07:29:40.358Z,64.10
2018-11-29T07:32:11.656Z,63.68
2018-11-29T07:34:40.579Z,62.85
2018-11-29T07:37:09.453Z,63.97
2018-11-29T07:39:38.478Z,62.92
2018-11-29T07:42:07.587Z,63.94
2018-11-29T07:44:36.568Z,63.36
2018-11-29T07:47:05.479Z,63.50
2018-11-29T07:49:34.326Z,62.77
2018-11-29T07:52:03.267Z,63.54
2018-11-29T07:54:32.147Z,63.44
2018-11-29T07:57:01.051Z,64.84
2018-11-29T07:59:29.909Z,64.81
2018-11-29T08:01:58.785Z,64.14
2018-11-29T08:04:27.648Z,63.39
2018-11-29T08:06:56.552Z,63.71
2018-11-29T08:09:25.400Z,62.90
2018-11-29T08:11:54.328Z,64.19
2018-11-29T08:14:23.241Z,64.41
2018-11-29T08:16:52.059Z,63.86
2018-11-29T08:19:20.908Z,63.45
2018-11-29T08:21:55.973Z,63.78
2018-11-29T08:24:24.997Z,63.36
2018-11-29T08:26:53.826Z,63.14
2018-11-29T08:29:22.740Z,63.90
2018-11-29T08:31:51.628Z,62.66
2018-11-29T08:34:20.776Z,62.30
2018-11-29T08:36:49.621Z,62.96
2018-11-29T08:39:19.125Z,63.79
2018-11-29T08:41:47.990Z,64.30
2018-11-29T08:44:16.860Z,63.50
2018-11-29T08:46:45.704Z,63.16
2018-11-29T08:49:14.547Z,63.25
2018-11-29T08:51:43.374Z,62.24
2018-11-29T08:54:12.230Z,62.39
2018-11-29T08:56:41.093Z,62.65
2018-11-29T08:59:09.920Z,62.10
2018-11-29T09:01:38.755Z,62.14
2018-11-29T09:04:07.733Z,62.24
2018-11-29T09:06:36.567Z,61.26
2018-11-29T09:09:07.272Z,62.04
2018-11-29T09:11:36.124Z,61.74
2018-11-29T09:14:04.986Z,61.89
2018-11-29T09:16:34.033Z,62.04
2018-11-29T09:19:02.899Z,62.39
2018-11-29T09:21:31.792Z,62.24
2018-11-29T09:24:00.653Z,63.50
2018-11-29T09:26:29.537Z,62.09
2018-11-29T09:28:58.415Z,61.60
2018-11-29T09:31:27.287Z,62.36
2018-11-29T09:33:56.134Z,60.54
2018-11-29T09:36:25.021Z,60.58
2018-11-29T09:38:53.989Z,60.18
2018-11-29T09:41:22.877Z,61.01
2018-11-29T09:43:51.770Z,61.12
2018-11-29T09:46:20.640Z,61.36
2018-11-29T09:48:49.548Z,62.05
2018-11-29T09:51:18.379Z,61.85
2018-11-29T09:53:47.229Z,60.99
2018-11-29T09:56:16.070Z,60.94
2018-11-29T09:58:45.057Z,61.25
2018-11-29T10:01:13.869Z,61.43
2018-11-29T10:03:42.728Z,61.55
2018-11-29T10:06:11.614Z,62.02
2018-11-29T10:08:40.467Z,61.99
2018-11-29T10:11:09.299Z,62.39
2018-11-29T10:13:38.164Z,61.03
2018-11-29T10:16:07.072Z,62.09
2018-11-29T10:18:35.939Z,62.02
2018-11-29T10:21:04.807Z,62.05
2018-11-29T10:23:33.684Z,61.92
2018-11-29T10:26:02.564Z,61.51
2018-11-29T10:28:31.487Z,61.77
2018-11-29T10:31:01.787Z,62.27
2018-11-29T10:33:30.718Z,61.66
2018-11-29T10:35:59.609Z,61.82
2018-11-29T10:38:28.454Z,61.85
2018-11-29T10:40:57.359Z,61.02
2018-11-29T10:43:26.258Z,61.78
2018-11-29T10:45:55.149Z,61.55
2018-11-29T10:48:24.839Z,61.46
2018-11-29T10:50:53.731Z,61.78
2018-11-29T10:53:22.580Z,61.95
2018-11-29T10:55:51.456Z,62.13
2018-11-29T10:58:20.285Z,62.47
2018-11-29T11:00:54.309Z,62.40
2018-11-29T11:03:23.179Z,62.48
2018-11-29T11:05:53.098Z,62.32
2018-11-29T11:08:22.171Z,62.17
2018-11-29T11:10:51.083Z,61.65
2018-11-29T11:13:19.972Z,63.39
2018-11-29T11:15:48.848Z,61.77
2018-11-29T11:18:18.152Z,61.89
2018-11-29T11:20:47.002Z,62.25
2018-11-29T11:23:15.848Z,61.52
2018-11-29T11:25:44.809Z,62.72
2018-11-29T11:28:20.275Z,62.66
2018-11-29T11:30:49.155Z,63.51
2018-11-29T11:33:18.051Z,63.33
2018-11-29T11:35:46.923Z,62.03
2018-11-29T11:38:15.860Z,61.90
2018-11-29T11:40:44.812Z,61.90
2018-11-29T11:43:13.673Z,61.73
2018-11-29T11:45:42.579Z,62.84
2018-11-29T11:48:11.451Z,62.33
2018-11-29T11:50:40.341Z,61.57
2018-11-29T11:53:09.834Z,61.79
2018-11-29T11:55:38.915Z,62.19
2018-11-29T11:58:08.523Z,62.17
2018-11-29T12:00:37.851Z,61.01
2018-11-29T12:03:10.414Z,61.81
2018-11-29T12:05:39.314Z,61.17
2018-11-29T12:08:08.397Z,61.01
2018-11-29T12:10:37.929Z,62.19
2018-11-29T12:13:07.850Z,63.75
2018-11-29T12:15:37.732Z,63.33
2018-11-29T12:18:08.322Z,63.42
2018-11-29T12:20:37.155Z,63.04
2018-11-29T12:23:06.567Z,63.73
2018-11-29T12:25:35.411Z,64.31
2018-11-29T12:28:04.345Z,63.21
2018-11-29T12:30:34.999Z,64.28
2018-11-29T12:33:05.104Z,64.78
2018-11-29T12:35:34.093Z,64.66
2018-11-29T12:38:02.965Z,64.45
2018-11-29T12:40:31.879Z,64.50
2018-11-29T12:43:00.770Z,63.72
2018-11-29T12:45:29.620Z,64.55
2018-11-29T12:47:58.467Z,64.17
2018-11-29T12:50:27.845Z,64.21
2018-11-29T12:52:56.679Z,65.04
2018-11-29T12:55:26.668Z,65.38
2018-11-29T12:58:05.101Z,65.02
2018-11-29T13:00:25.412Z,64.56
2018-11-29T13:02:56.342Z,65.35
2018-11-29T13:05:25.604Z,65.44
2018-11-29T13:07:54.564Z,64.65
2018-11-29T13:10:24.512Z,64.89
2018-11-29T13:12:53.644Z,65.28
2018-11-29T13:15:28.709Z,64.57
2018-11-29T13:17:58.667Z,64.03
2018-11-29T13:20:32.383Z,64.16
2018-11-29T13:22:56.446Z,63.83
2018-11-29T13:25:26.571Z,63.90
2018-11-29T13:27:55.476Z,64.14
2018-11-29T13:30:24.510Z,63.56
2018-11-29T13:32:54.732Z,64.15
2018-11-29T13:35:29.067Z,64.78
2018-11-29T13:38:02.123Z,64.56
2018-11-29T13:40:31.823Z,63.55
2018-11-29T13:43:00.705Z,64.57
2018-11-29T13:45:29.647Z,64.60
2018-11-29T13:47:58.537Z,65.54
2018-11-29T13:50:27.420Z,65.56
2018-11-29T13:52:56.512Z,66.08
2018-11-29T13:55:25.655Z,64.67
2018-11-29T13:57:54.838Z,65.37
2018-11-29T14:00:24.720Z,65.57
2018-11-29T14:02:59.084Z,66.62
2018-11-29T14:05:28.186Z,65.68
2018-11-29T14:07:57.371Z,65.86
2018-11-29T14:10:26.530Z,65.64
2018-11-29T14:12:56.283Z,65.60
2018-11-29T14:15:32.513Z,65.13
2018-11-29T14:18:01.835Z,66.53
2018-11-29T14:20:30.957Z,65.90
2018-11-29T14:23:00.068Z,66.40
2018-11-29T14:25:29.210Z,65.24
2018-11-29T14:27:58.756Z,65.90
2018-11-29T14:30:29.026Z,65.15
2018-11-29T14:32:59.413Z,65.20
2018-11-29T14:35:28.597Z,65.30
2018-11-29T14:37:57.730Z,65.30
2018-11-29T14:40:28.134Z,65.61
2018-11-29T14:42:57.259Z,65.98
2018-11-29T14:45:27.322Z,65.88
2018-11-29T14:47:56.840Z,66.29
2018-11-29T14:50:38.878Z,66.91
2018-11-29T14:53:09.106Z,67.70
2018-11-29T14:55:38.751Z,66.70
2018-11-29T14:58:12.055Z,65.88
2018-11-29T15:00:41.213Z,65.63
2018-11-29T15:03:15.496Z,65.16
2018-11-29T15:05:45.112Z,64.91
2018-11-29T15:08:14.274Z,64.37
2018-11-29T15:10:43.370Z,64.37
2018-11-29T15:13:13.039Z,64.26
2018-11-29T15:15:43.007Z,64.96
2018-11-29T15:18:12.536Z,65.05
2018-11-29T15:20:46.867Z,65.60
2018-11-29T15:23:17.377Z,65.04
2018-11-29T15:25:46.488Z,64.88
2018-11-29T15:28:15.606Z,63.53
2018-11-29T15:30:44.854Z,64.74
2018-11-29T15:33:14.127Z,64.28
2018-11-29T15:35:43.230Z,64.96
2018-11-29T15:38:12.358Z,65.12
2018-11-29T15:40:41.500Z,64.64
2018-11-29T15:43:10.589Z,64.42
2018-11-29T15:45:39.697Z,64.12
2018-11-29T15:48:08.783Z,63.66
2018-11-29T15:50:37.891Z,63.60
2018-11-29T15:53:07.837Z,64.17
2018-11-29T15:55:37.281Z,63.43
2018-11-29T15:58:06.769Z,63.27
2018-11-29T16:00:36.000Z,62.88
2018-11-29T16:03:07.998Z,63.31
2018-11-29T16:05:37.155Z,62.42
2018-11-29T16:08:07.112Z,62.02
2018-11-29T16:10:36.559Z,61.71
2018-11-29T16:13:06.868Z,60.85
2018-11-29T16:15:36.317Z,60.99
2018-11-29T16:18:05.513Z,61.52
2018-11-29T16:20:36.243Z,61.47
2018-11-29T16:23:05.993Z,61.44
2018-11-29T16:25:35.161Z,60.85
2018-11-29T16:28:05.202Z,62.02
2018-11-29T16:30:39.208Z,61.50
2018-11-29T16:33:10.953Z,61.65
2018-11-29T16:35:40.136Z,61.35
2018-11-29T16:38:09.237Z,62.08
2018-11-29T16:40:38.358Z,62.70
2018-11-29T16:43:08.249Z,62.92
2018-11-29T16:45:37.581Z,63.32
2018-11-29T16:48:07.136Z,63.00
2018-11-29T16:50:36.841Z,63.62
2018-11-29T16:53:06.773Z,64.34
2018-11-29T16:55:36.000Z,65.36
2018-11-29T16:58:09.211Z,65.04
2018-11-29T17:00:38.324Z,65.48
2018-11-29T17:03:07.544Z,65.71
2018-11-29T17:05:36.854Z,65.06
2018-11-29T17:08:06.794Z,64.41
2018-11-29T17:10:36.094Z,65.66
2018-11-29T17:13:10.999Z,65.75
2018-11-29T17:15:40.092Z,65.23
2018-11-29T17:18:09.205Z,66.02
2018-11-29T17:20:38.386Z,65.70
2018-11-29T17:23:09.084Z,64.07
2018-11-29T17:25:38.338Z,65.37
2018-11-29T17:28:08.115Z,64.96
2018-11-29T17:30:37.934Z,64.51
2018-11-29T17:33:08.334Z,64.79
2018-11-29T17:35:37.559Z,65.25
2018-11-29T17:38:07.038Z,64.41
2018-11-29T17:40:37.143Z,64.46
2018-11-29T17:43:06.953Z,64.62
2018-11-29T17:45:36.143Z,64.36
2018-11-29T17:48:10.088Z,64.69
2018-11-29T17:50:41.513Z,65.52
2018-11-29T17:53:11.396Z,64.91
2018-11-29T17:55:40.760Z,64.02
2018-11-29T17:58:12.470Z,64.19
2018-11-29T18:00:41.918Z,64.26
2018-11-29T18:03:11.030Z,63.72
2018-11-29T18:05:40.157Z,63.21
2018-11-29T18:08:09.269Z,62.74
2018-11-29T18:10:40.156Z,63.60
2018-11-29T18:13:15.186Z,64.24
2018-11-29T18:15:44.412Z,63.61
2018-11-29T18:18:14.680Z,64.25
2018-11-29T18:20:42.952Z,63.70
2018-11-29T18:23:12.952Z,63.41
2018-11-29T18:25:42.109Z,64.91
2018-11-29T18:28:12.055Z,64.43
2018-11-29T18:30:41.155Z,64.38
2018-11-29T18:33:10.301Z,65.91
2018-11-29T18:35:39.451Z,65.66
2018-11-29T18:38:09.372Z,64.98
2018-11-29T18:40:38.518Z,64.46
2018-11-29T18:43:09.391Z,64.69
2018-11-29T18:45:38.645Z,63.82
2018-11-29T18:48:08.193Z,64.34
2018-11-29T18:50:37.531Z,65.41
2018-11-29T18:53:07.377Z,65.01
2018-11-29T18:55:36.572Z,64.23
2018-11-29T18:58:06.258Z,64.18
2018-11-29T19:00:36.481Z,63.73
2018-11-29T19:03:06.048Z,62.93
2018-11-29T19:05:35.538Z,62.40
2018-11-29T19:08:04.568Z,63.06
2018-11-29T19:10:33.821Z,63.05
2018-11-29T19:13:09.164Z,62.44
2018-11-29T19:15:38.266Z,63.31
2018-11-29T19:18:10.504Z,62.47
2018-11-29T19:20:37.315Z,61.78
2018-11-29T19:23:06.760Z,61.94
2018-11-29T19:25:36.183Z,62.18
2018-11-29T19:28:05.864Z,62.15
2018-11-29T19:30:35.472Z,62.35
2018-11-29T19:33:17.489Z,62.06
2018-11-29T19:35:47.403Z,61.01
2018-11-29T19:38:16.646Z,62.91
2018-11-29T19:40:45.945Z,63.16
2018-11-29T19:43:15.055Z,62.59
2018-11-29T19:45:44.213Z,62.69
2018-11-29T19:48:13.690Z,62.95
2018-11-29T19:50:42.843Z,63.12
2018-11-29T19:53:19.011Z,63.22
2018-11-29T19:55:49.007Z,62.31
2018-11-29T19:58:18.145Z,62.77
2018-11-29T20:00:47.831Z,62.67
2018-11-29T20:03:16.874Z,62.57
2018-11-29T20:05:47.021Z,62.56
2018-11-29T20:08:16.151Z,62.79
2018-11-29T20:10:45.297Z,62.26
2018-11-29T20:13:15.471Z,62.26
2018-11-29T20:15:47.260Z,62.41
2018-11-29T20:18:16.474Z,62.58
2018-11-29T20:20:45.681Z,62.78
2018-11-29T20:23:14.848Z,63.09
2018-11-29T20:25:45.309Z,62.06
2018-11-29T20:28:14.469Z,62.71
2018-11-29T20:30:43.668Z,63.09
2018-11-29T20:33:13.177Z,62.44
2018-11-29T20:35:42.596Z,62.21
2018-11-29T20:38:11.750Z,61.91
2018-11-29T20:40:42.489Z,61.59
2018-11-29T20:43:11.598Z,61.23
2018-11-29T20:45:50.765Z,61.28
2018-11-29T20:48:22.102Z,61.53
2018-11-29T20:50:51.966Z,61.22
2018-11-29T20:53:24.198Z,60.97
2018-11-29T20:55:53.417Z,60.61
2018-11-29T20:58:22.487Z,60.67
2018-11-29T21:00:51.573Z,61.05
2018-11-29T21:03:20.695Z,60.86
2018-11-29T21:05:49.787Z,60.72
2018-11-29T21:08:18.889Z,61.02
2018-11-29T21:10:48.080Z,60.61
2018-11-29T21:13:17.227Z,60.90
2018-11-29T21:15:46.479Z,61.50
2018-11-29T21:18:16.292Z,60.54
2018-11-29T21:20:45.497Z,60.93
2018-11-29T21:29:09.426Z,59.92
2018-11-29T21:31:41.426Z,59.89
2018-11-29T21:34:10.510Z,60.06
2018-11-29T21:36:39.595Z,60.24
2018-11-29T21:39:08.778Z,60.21
2018-11-29T21:41:37.844Z,59.84
2018-11-29T21:46:00.669Z,60.21
2018-11-29T21:48:30.453Z,60.76
2018-11-29T21:51:00.195Z,60.27
2018-11-29T21:53:29.959Z,59.36
2018-11-29T21:55:59.943Z,59.75
2018-11-29T21:58:29.768Z,59.48
2018-11-29T22:00:59.608Z,59.58
2018-11-29T22:03:29.361Z,60.02
2018-11-29T22:05:59.149Z,59.60
2018-11-29T22:08:28.888Z,59.58
2018-11-29T22:10:58.616Z,59.25
2018-11-29T22:13:28.411Z,59.82
2018-11-29T22:15:58.161Z,60.03
2018-11-29T22:18:27.962Z,59.58
2018-11-29T22:20:59.956Z,59.33
2018-11-29T22:23:29.992Z,58.92
2018-11-29T22:26:00.895Z,58.68
2018-11-29T22:28:31.191Z,58.20
2018-11-29T22:31:01.069Z,57.97
2018-11-29T22:33:30.834Z,57.77
2018-11-29T22:36:00.636Z,57.92
2018-11-29T22:38:30.528Z,57.77
2018-11-29T22:41:00.285Z,57.40
2018-11-29T22:43:30.189Z,57.80
2018-11-29T22:46:00.073Z,57.51
2018-11-29T22:48:29.899Z,57.52
2018-11-29T22:50:59.662Z,57.16
2018-11-29T22:53:29.461Z,57.04
2018-11-29T22:55:59.366Z,57.81
2018-11-29T22:58:29.109Z,57.99
2018-11-29T23:00:58.865Z,59.08
2018-11-29T23:03:28.642Z,58.59
2018-11-29T23:05:58.397Z,58.31
2018-11-29T23:08:28.104Z,58.77
2018-11-29T23:10:57.964Z,58.72
2018-11-29T23:13:27.758Z,59.52
2018-11-29T23:15:57.545Z,59.01
2018-11-29T23:18:27.302Z,58.87
2018-11-29T23:20:57.083Z,58.99
2018-11-29T23:23:26.808Z,59.00
2018-11-29T23:25:56.577Z,59.70
2018-11-29T23:28:26.333Z,59.77
2018-11-29T23:30:56.042Z,59.75
2018-11-29T23:33:25.875Z,59.90
2018-11-29T23:35:55.616Z,60.65
2018-11-29T23:38:25.441Z,60.40
2018-11-29T23:40:55.277Z,60.28
2018-11-29T23:43:25.008Z,60.35
2018-11-29T23:45:54.739Z,60.31
2018-11-29T23:48:24.469Z,60.30
2018-11-29T23:50:54.209Z,60.19
2018-11-29T23:53:23.954Z,60.12
2018-11-29T23:55:54.169Z,60.01
2018-11-29T23:58:23.903Z,59.78
